CheckWX is a tool to help pilots better visualize weather data.  It is not intended as a substitute for an official pre-flight weather briefing.

13:05:49 UTC

EPPO TAF
Poznań-Ławica Airport
Poznań, Poland
TAF EPPO 181130Z 1812/1912 20010KT 9999 BKN040 TEMPO 1812/1912 -SHRA BKN033CB PROB40 TEMPO 1818/1823 24015G30KT 4000 TSRA BKN014 BKN025CB BECMG 1820/1823 26006KT PROB40 TEMPO 1823/1912 4000 RA BR BKN007 OVC014

Aug-18@
12:00 UTC

Aug-18 @ 12:00 UTC

Aug-18@
20:00 UTC

Aug-18 @ 20:00 UTC

TAF EPPO 181130Z 1812/1912 20010KT 9999 BKN040
Wind
  • 200° at 10 KTS
Cloud Levels
  • Broken at 4,000' AGL

Aug-18@
12:00 UTC

Aug-18 @ 12:00 UTC

Aug-19@
12:00 UTC

Aug-19 @ 12:00 UTC

TEMPO 1812/1912 -SHRA BKN033CB

Temporary

Temporary Changes expected for less than half the time period

Conditions
Light Rain
Cloud Levels
  • Broken at 3,300' AGL

Aug-18@
18:00 UTC

Aug-18 @ 18:00 UTC

Aug-18@
23:00 UTC

Aug-18 @ 23:00 UTC

PROB40 TEMPO 1818/1823 24015G30KT 4000 TSRA BKN014 BKN025CB

Temporary - 40% Likelihood

Temporary - 40% Likelihood during this time.

Wind
  • 240° at 15 KTS
  • {Gusting to 30 KTS
Conditions
Thunderstorm, Rain
Cloud Levels
  • Broken at 1,400' AGL
  • Broken at 2,500' AGL

Aug-18@
20:00 UTC

Aug-18 @ 20:00 UTC

Aug-19@
12:00 UTC

Aug-19 @ 12:00 UTC

BECMG 1820/1823 26006KT

Becoming

Becoming Conditions expected by Sun, Aug 18, 2019 @ 23:00 UTC

Wind
  • 260° at 6 KTS
Cloud Levels
  • Broken at 4,000' AGL

Aug-18@
23:00 UTC

Aug-18 @ 23:00 UTC

Aug-19@
12:00 UTC

Aug-19 @ 12:00 UTC

PROB40 TEMPO 1823/1912 4000 RA BR BKN007 OVC014

Temporary - 40% Likelihood

Temporary - 40% Likelihood during this time.

Conditions
Rain, Mist
Cloud Levels
  • Broken at 700' AGL
  • Overcast at 1,400' AGL